sensor_id;sensor_type;location;lat;lon;timestamp;temperature;humidity
68450;SHT30;67758;39.572;2.652;2024-03-25T00:00:58;14.41;78.76
68450;SHT30;67758;39.572;2.652;2024-03-25T00:03:29;14.53;78.53
68450;SHT30;67758;39.572;2.652;2024-03-25T00:06:00;14.51;78.19
68450;SHT30;67758;39.572;2.652;2024-03-25T00:08:26;14.48;77.85
68450;SHT30;67758;39.572;2.652;2024-03-25T00:10:57;14.48;77.90
68450;SHT30;67758;39.572;2.652;2024-03-25T00:13:45;14.46;78.01
68450;SHT30;67758;39.572;2.652;2024-03-25T00:16:19;14.47;78.10
68450;SHT30;67758;39.572;2.652;2024-03-25T00:18:48;14.43;78.00
68450;SHT30;67758;39.572;2.652;2024-03-25T00:21:13;14.44;78.46
68450;SHT30;67758;39.572;2.652;2024-03-25T00:23:42;14.50;78.58
68450;SHT30;67758;39.572;2.652;2024-03-25T00:26:18;14.43;78.37
68450;SHT30;67758;39.572;2.652;2024-03-25T00:28:53;14.41;78.59
68450;SHT30;67758;39.572;2.652;2024-03-25T00:31:19;14.40;78.68
68450;SHT30;67758;39.572;2.652;2024-03-25T00:33:45;14.40;78.71
68450;SHT30;67758;39.572;2.652;2024-03-25T00:36:11;14.43;78.84
68450;SHT30;67758;39.572;2.652;2024-03-25T00:38:38;14.46;78.77
68450;SHT30;67758;39.572;2.652;2024-03-25T00:41:08;14.50;78.80
68450;SHT30;67758;39.572;2.652;2024-03-25T00:43:34;14.44;78.58
68450;SHT30;67758;39.572;2.652;2024-03-25T00:46:00;14.37;78.73
68450;SHT30;67758;39.572;2.652;2024-03-25T00:48:33;14.37;78.76
68450;SHT30;67758;39.572;2.652;2024-03-25T00:50:59;14.43;78.72
68450;SHT30;67758;39.572;2.652;2024-03-25T00:53:25;14.46;78.78
68450;SHT30;67758;39.572;2.652;2024-03-25T00:55:50;14.44;78.86
68450;SHT30;67758;39.572;2.652;2024-03-25T00:58:18;14.44;78.86
68450;SHT30;67758;39.572;2.652;2024-03-25T01:00:47;14.47;79.08
68450;SHT30;67758;39.572;2.652;2024-03-25T01:03:15;14.30;79.31
68450;SHT30;67758;39.572;2.652;2024-03-25T01:05:41;14.26;79.78
68450;SHT30;67758;39.572;2.652;2024-03-25T01:08:06;14.27;79.92
68450;SHT30;67758;39.572;2.652;2024-03-25T01:10:53;14.10;80.33
68450;SHT30;67758;39.572;2.652;2024-03-25T01:13:29;14.15;80.52
68450;SHT30;67758;39.572;2.652;2024-03-25T01:15:58;14.16;80.46
68450;SHT30;67758;39.572;2.652;2024-03-25T01:18:23;14.16;80.59
68450;SHT30;67758;39.572;2.652;2024-03-25T01:20:50;14.22;80.67
68450;SHT30;67758;39.572;2.652;2024-03-25T01:23:16;14.12;80.44
68450;SHT30;67758;39.572;2.652;2024-03-25T01:25:44;14.06;80.59
68450;SHT30;67758;39.572;2.652;2024-03-25T01:28:12;13.95;80.66
68450;SHT30;67758;39.572;2.652;2024-03-25T01:30:38;13.86;80.81
68450;SHT30;67758;39.572;2.652;2024-03-25T01:33:05;13.81;80.83
68450;SHT30;67758;39.572;2.652;2024-03-25T01:35:31;13.89;80.82
68450;SHT30;67758;39.572;2.652;2024-03-25T01:37:57;13.89;80.71
68450;SHT30;67758;39.572;2.652;2024-03-25T01:40:23;13.82;80.94
68450;SHT30;67758;39.572;2.652;2024-03-25T01:42:59;13.69;81.63
68450;SHT30;67758;39.572;2.652;2024-03-25T01:45:28;13.69;82.55
68450;SHT30;67758;39.572;2.652;2024-03-25T01:47:56;13.57;83.98
68450;SHT30;67758;39.572;2.652;2024-03-25T01:50:22;13.42;84.77
68450;SHT30;67758;39.572;2.652;2024-03-25T01:52:48;13.31;85.39
68450;SHT30;67758;39.572;2.652;2024-03-25T01:55:17;13.35;86.00
68450;SHT30;67758;39.572;2.652;2024-03-25T01:57:45;13.50;87.06
68450;SHT30;67758;39.572;2.652;2024-03-25T02:00:13;13.32;86.36
68450;SHT30;67758;39.572;2.652;2024-03-25T02:02:42;13.25;87.29
68450;SHT30;67758;39.572;2.652;2024-03-25T02:05:19;13.11;87.11
68450;SHT30;67758;39.572;2.652;2024-03-25T02:08:10;13.11;87.87
68450;SHT30;67758;39.572;2.652;2024-03-25T02:10:38;13.17;88.05
68450;SHT30;67758;39.572;2.652;2024-03-25T02:13:17;13.21;87.28
68450;SHT30;67758;39.572;2.652;2024-03-25T02:15:49;13.32;88.37
68450;SHT30;67758;39.572;2.652;2024-03-25T02:18:29;13.34;87.68
68450;SHT30;67758;39.572;2.652;2024-03-25T02:21:00;13.27;87.38
68450;SHT30;67758;39.572;2.652;2024-03-25T02:23:36;13.27;87.76
68450;SHT30;67758;39.572;2.652;2024-03-25T02:26:07;13.21;86.97
68450;SHT30;67758;39.572;2.652;2024-03-25T02:28:37;13.14;87.57
68450;SHT30;67758;39.572;2.652;2024-03-25T02:31:06;13.11;87.82
68450;SHT30;67758;39.572;2.652;2024-03-25T02:33:34;13.08;88.11
68450;SHT30;67758;39.572;2.652;2024-03-25T02:36:11;13.20;88.22
68450;SHT30;67758;39.572;2.652;2024-03-25T02:45:44;13.07;87.22
68450;SHT30;67758;39.572;2.652;2024-03-25T03:00:26;13.08;88.43
68450;SHT30;67758;39.572;2.652;2024-03-25T03:03:09;12.94;89.22
68450;SHT30;67758;39.572;2.652;2024-03-25T03:06:58;13.00;89.33
68450;SHT30;67758;39.572;2.652;2024-03-25T03:14:29;13.00;89.15
68450;SHT30;67758;39.572;2.652;2024-03-25T03:22:03;12.93;89.20
68450;SHT30;67758;39.572;2.652;2024-03-25T03:24:40;12.96;89.00
68450;SHT30;67758;39.572;2.652;2024-03-25T03:30:29;12.94;88.13
68450;SHT30;67758;39.572;2.652;2024-03-25T03:33:16;12.91;88.47
68450;SHT30;67758;39.572;2.652;2024-03-25T03:36:02;13.08;88.55
68450;SHT30;67758;39.572;2.652;2024-03-25T03:38:33;13.06;87.68
68450;SHT30;67758;39.572;2.652;2024-03-25T03:41:38;12.93;87.55
68450;SHT30;67758;39.572;2.652;2024-03-25T03:51:44;12.87;86.39
68450;SHT30;67758;39.572;2.652;2024-03-25T03:54:36;12.83;85.83
68450;SHT30;67758;39.572;2.652;2024-03-25T03:57:06;12.96;86.47
68450;SHT30;67758;39.572;2.652;2024-03-25T04:00:09;12.93;84.97
68450;SHT30;67758;39.572;2.652;2024-03-25T04:02:58;12.91;84.52
68450;SHT30;67758;39.572;2.652;2024-03-25T04:05:31;13.01;84.31
68450;SHT30;67758;39.572;2.652;2024-03-25T04:08:30;13.18;83.58
68450;SHT30;67758;39.572;2.652;2024-03-25T04:11:01;13.27;83.59
68450;SHT30;67758;39.572;2.652;2024-03-25T04:13:45;13.15;82.50
68450;SHT30;67758;39.572;2.652;2024-03-25T04:22:28;13.21;82.40
68450;SHT30;67758;39.572;2.652;2024-03-25T04:25:02;13.17;81.94
68450;SHT30;67758;39.572;2.652;2024-03-25T04:27:28;13.11;81.97
68450;SHT30;67758;39.572;2.652;2024-03-25T04:29:54;13.25;82.88
68450;SHT30;67758;39.572;2.652;2024-03-25T04:32:20;13.21;81.44
68450;SHT30;67758;39.572;2.652;2024-03-25T04:34:46;13.28;81.91
68450;SHT30;67758;39.572;2.652;2024-03-25T04:37:12;13.31;81.31
68450;SHT30;67758;39.572;2.652;2024-03-25T04:39:40;13.28;81.60
68450;SHT30;67758;39.572;2.652;2024-03-25T04:42:06;13.40;81.75
68450;SHT30;67758;39.572;2.652;2024-03-25T04:44:32;13.41;81.89
68450;SHT30;67758;39.572;2.652;2024-03-25T04:46:58;13.35;82.01
68450;SHT30;67758;39.572;2.652;2024-03-25T04:49:35;13.30;81.88
68450;SHT30;67758;39.572;2.652;2024-03-25T04:55:59;13.34;81.61
68450;SHT30;67758;39.572;2.652;2024-03-25T04:59:06;13.47;82.27
68450;SHT30;67758;39.572;2.652;2024-03-25T05:01:32;13.35;81.42
68450;SHT30;67758;39.572;2.652;2024-03-25T05:04:01;13.32;81.87
68450;SHT30;67758;39.572;2.652;2024-03-25T05:06:27;13.24;81.88
68450;SHT30;67758;39.572;2.652;2024-03-25T05:08:55;13.24;82.01
68450;SHT30;67758;39.572;2.652;2024-03-25T05:11:23;13.15;81.85
68450;SHT30;67758;39.572;2.652;2024-03-25T05:13:55;13.20;81.84
68450;SHT30;67758;39.572;2.652;2024-03-25T05:16:31;13.24;81.38
68450;SHT30;67758;39.572;2.652;2024-03-25T05:18:56;13.27;81.15
68450;SHT30;67758;39.572;2.652;2024-03-25T05:21:25;13.35;81.84
68450;SHT30;67758;39.572;2.652;2024-03-25T05:23:54;13.31;81.47
68450;SHT30;67758;39.572;2.652;2024-03-25T05:26:27;13.28;81.80
68450;SHT30;67758;39.572;2.652;2024-03-25T05:28:59;13.35;81.88
68450;SHT30;67758;39.572;2.652;2024-03-25T05:31:33;13.32;81.97
68450;SHT30;67758;39.572;2.652;2024-03-25T05:34:04;13.23;81.54
68450;SHT30;67758;39.572;2.652;2024-03-25T05:36:44;13.14;81.76
68450;SHT30;67758;39.572;2.652;2024-03-25T05:39:15;13.14;81.86
68450;SHT30;67758;39.572;2.652;2024-03-25T05:41:43;13.14;81.86
68450;SHT30;67758;39.572;2.652;2024-03-25T05:44:23;13.23;82.67
68450;SHT30;67758;39.572;2.652;2024-03-25T05:46:49;13.23;81.33
68450;SHT30;67758;39.572;2.652;2024-03-25T05:49:17;13.32;81.43
68450;SHT30;67758;39.572;2.652;2024-03-25T05:51:49;13.41;81.86
68450;SHT30;67758;39.572;2.652;2024-03-25T05:54:25;13.41;81.56
68450;SHT30;67758;39.572;2.652;2024-03-25T05:56:59;13.38;81.43
68450;SHT30;67758;39.572;2.652;2024-03-25T05:59:47;13.40;81.32
68450;SHT30;67758;39.572;2.652;2024-03-25T06:02:12;13.42;81.28
68450;SHT30;67758;39.572;2.652;2024-03-25T06:04:42;13.38;81.15
68450;SHT30;67758;39.572;2.652;2024-03-25T06:07:07;13.34;80.92
68450;SHT30;67758;39.572;2.652;2024-03-25T06:09:34;13.30;81.16
68450;SHT30;67758;39.572;2.652;2024-03-25T06:11:59;13.34;81.10
68450;SHT30;67758;39.572;2.652;2024-03-25T06:14:25;13.25;80.86
68450;SHT30;67758;39.572;2.652;2024-03-25T06:16:53;13.30;80.88
68450;SHT30;67758;39.572;2.652;2024-03-25T06:19:18;13.41;80.94
68450;SHT30;67758;39.572;2.652;2024-03-25T06:21:44;13.44;80.94
68450;SHT30;67758;39.572;2.652;2024-03-25T06:24:48;13.40;80.44
68450;SHT30;67758;39.572;2.652;2024-03-25T06:27:16;13.44;80.45
68450;SHT30;67758;39.572;2.652;2024-03-25T06:29:41;13.42;80.26
68450;SHT30;67758;39.572;2.652;2024-03-25T06:32:09;13.45;80.41
68450;SHT30;67758;39.572;2.652;2024-03-25T06:34:53;13.55;80.82
68450;SHT30;67758;39.572;2.652;2024-03-25T06:37:18;13.72;81.01
68450;SHT30;67758;39.572;2.652;2024-03-25T06:39:44;13.62;79.56
68450;SHT30;67758;39.572;2.652;2024-03-25T06:42:10;13.57;79.56
68450;SHT30;67758;39.572;2.652;2024-03-25T06:44:35;13.78;80.30
68450;SHT30;67758;39.572;2.652;2024-03-25T06:47:01;13.69;79.17
68450;SHT30;67758;39.572;2.652;2024-03-25T06:49:27;13.75;79.44
68450;SHT30;67758;39.572;2.652;2024-03-25T06:51:53;13.90;79.54
68450;SHT30;67758;39.572;2.652;2024-03-25T06:54:19;14.16;79.85
68450;SHT30;67758;39.572;2.652;2024-03-25T06:56:44;14.26;78.63
68450;SHT30;67758;39.572;2.652;2024-03-25T06:59:10;14.10;77.65
68450;SHT30;67758;39.572;2.652;2024-03-25T07:01:35;14.27;77.21
68450;SHT30;67758;39.572;2.652;2024-03-25T07:04:01;14.27;77.36
68450;SHT30;67758;39.572;2.652;2024-03-25T07:06:27;14.47;77.14
68450;SHT30;67758;39.572;2.652;2024-03-25T07:08:52;14.57;76.92
68450;SHT30;67758;39.572;2.652;2024-03-25T07:11:18;14.48;75.55
68450;SHT30;67758;39.572;2.652;2024-03-25T07:13:44;14.60;75.99
68450;SHT30;67758;39.572;2.652;2024-03-25T07:16:10;14.77;75.91
68450;SHT30;67758;39.572;2.652;2024-03-25T07:18:36;14.94;75.49
68450;SHT30;67758;39.572;2.652;2024-03-25T07:21:04;15.04;74.44
68450;SHT30;67758;39.572;2.652;2024-03-25T07:23:30;15.21;74.50
68450;SHT30;67758;39.572;2.652;2024-03-25T07:25:55;14.94;72.98
68450;SHT30;67758;39.572;2.652;2024-03-25T07:28:21;15.19;73.19
68450;SHT30;67758;39.572;2.652;2024-03-25T07:30:50;15.48;73.69
68450;SHT30;67758;39.572;2.652;2024-03-25T07:33:15;15.29;72.10
68450;SHT30;67758;39.572;2.652;2024-03-25T07:35:41;15.45;73.31
68450;SHT30;67758;39.572;2.652;2024-03-25T07:38:06;15.34;72.45
68450;SHT30;67758;39.572;2.652;2024-03-25T07:40:33;15.36;72.26
68450;SHT30;67758;39.572;2.652;2024-03-25T07:42:58;15.29;72.87
68450;SHT30;67758;39.572;2.652;2024-03-25T07:45:24;15.21;72.60
68450;SHT30;67758;39.572;2.652;2024-03-25T07:47:49;15.34;72.76
68450;SHT30;67758;39.572;2.652;2024-03-25T07:50:15;15.32;72.47
68450;SHT30;67758;39.572;2.652;2024-03-25T07:52:41;15.21;72.27
68450;SHT30;67758;39.572;2.652;2024-03-25T07:55:11;15.34;72.44
68450;SHT30;67758;39.572;2.652;2024-03-25T07:57:38;15.39;72.07
68450;SHT30;67758;39.572;2.652;2024-03-25T08:00:04;15.43;72.34
68450;SHT30;67758;39.572;2.652;2024-03-25T08:02:34;15.48;72.34
68450;SHT30;67758;39.572;2.652;2024-03-25T08:05:00;15.56;71.89
68450;SHT30;67758;39.572;2.652;2024-03-25T08:07:25;15.59;71.67
68450;SHT30;67758;39.572;2.652;2024-03-25T08:09:52;15.58;71.59
68450;SHT30;67758;39.572;2.652;2024-03-25T08:12:17;15.67;71.88
68450;SHT30;67758;39.572;2.652;2024-03-25T08:14:43;15.71;71.23
68450;SHT30;67758;39.572;2.652;2024-03-25T08:17:09;15.86;71.20
68450;SHT30;67758;39.572;2.652;2024-03-25T08:19:34;15.77;71.24
68450;SHT30;67758;39.572;2.652;2024-03-25T08:22:00;15.94;71.40
68450;SHT30;67758;39.572;2.652;2024-03-25T08:24:25;15.96;71.09
68450;SHT30;67758;39.572;2.652;2024-03-25T08:26:51;15.91;70.86
68450;SHT30;67758;39.572;2.652;2024-03-25T08:29:17;16.03;70.70
68450;SHT30;67758;39.572;2.652;2024-03-25T08:31:42;15.97;70.38
68450;SHT30;67758;39.572;2.652;2024-03-25T08:34:08;16.21;70.79
68450;SHT30;67758;39.572;2.652;2024-03-25T08:36:34;16.21;70.55
68450;SHT30;67758;39.572;2.652;2024-03-25T08:38:59;16.21;69.92
68450;SHT30;67758;39.572;2.652;2024-03-25T08:41:25;16.34;69.90
68450;SHT30;67758;39.572;2.652;2024-03-25T08:43:52;16.41;70.11
68450;SHT30;67758;39.572;2.652;2024-03-25T08:46:17;16.21;70.20
68450;SHT30;67758;39.572;2.652;2024-03-25T08:48:43;16.40;70.35
68450;SHT30;67758;39.572;2.652;2024-03-25T08:51:08;16.44;70.02
68450;SHT30;67758;39.572;2.652;2024-03-25T08:53:34;16.45;70.02
68450;SHT30;67758;39.572;2.652;2024-03-25T08:56:00;16.37;70.23
68450;SHT30;67758;39.572;2.652;2024-03-25T08:58:25;16.48;70.05
68450;SHT30;67758;39.572;2.652;2024-03-25T09:00:51;16.51;70.05
68450;SHT30;67758;39.572;2.652;2024-03-25T09:03:17;16.73;70.06
68450;SHT30;67758;39.572;2.652;2024-03-25T09:05:42;16.58;70.06
68450;SHT30;67758;39.572;2.652;2024-03-25T09:08:08;16.93;69.91
68450;SHT30;67758;39.572;2.652;2024-03-25T09:10:37;16.78;69.76
68450;SHT30;67758;39.572;2.652;2024-03-25T09:13:21;16.99;69.55
68450;SHT30;67758;39.572;2.652;2024-03-25T09:15:49;17.11;69.11
68450;SHT30;67758;39.572;2.652;2024-03-25T09:18:14;17.39;68.90
68450;SHT30;67758;39.572;2.652;2024-03-25T09:20:40;17.26;68.80
68450;SHT30;67758;39.572;2.652;2024-03-25T09:23:05;17.39;68.85
68450;SHT30;67758;39.572;2.652;2024-03-25T09:25:33;17.44;69.05
68450;SHT30;67758;39.572;2.652;2024-03-25T09:27:58;17.66;68.73
68450;SHT30;67758;39.572;2.652;2024-03-25T09:30:24;17.70;68.75
68450;SHT30;67758;39.572;2.652;2024-03-25T09:32:49;17.91;68.13
68450;SHT30;67758;39.572;2.652;2024-03-25T09:35:15;18.08;68.15
68450;SHT30;67758;39.572;2.652;2024-03-25T09:37:40;18.21;67.78
68450;SHT30;67758;39.572;2.652;2024-03-25T09:40:06;18.16;67.94
68450;SHT30;67758;39.572;2.652;2024-03-25T09:42:47;18.19;68.13
68450;SHT30;67758;39.572;2.652;2024-03-25T09:45:13;18.28;67.61
68450;SHT30;67758;39.572;2.652;2024-03-25T09:47:41;18.26;67.91
68450;SHT30;67758;39.572;2.652;2024-03-25T09:50:10;18.35;67.64
68450;SHT30;67758;39.572;2.652;2024-03-25T09:52:37;18.42;67.43
68450;SHT30;67758;39.572;2.652;2024-03-25T09:55:03;18.62;67.55
68450;SHT30;67758;39.572;2.652;2024-03-25T09:57:30;18.55;67.17
68450;SHT30;67758;39.572;2.652;2024-03-25T09:59:58;18.90;66.46
68450;SHT30;67758;39.572;2.652;2024-03-25T10:02:29;19.41;65.76
68450;SHT30;67758;39.572;2.652;2024-03-25T10:04:54;19.35;65.39
68450;SHT30;67758;39.572;2.652;2024-03-25T10:07:24;19.06;65.43
68450;SHT30;67758;39.572;2.652;2024-03-25T10:09:51;19.18;64.94
68450;SHT30;67758;39.572;2.652;2024-03-25T10:12:17;19.50;64.65
68450;SHT30;67758;39.572;2.652;2024-03-25T10:14:44;19.32;64.88
68450;SHT30;67758;39.572;2.652;2024-03-25T10:17:10;19.16;65.04
68450;SHT30;67758;39.572;2.652;2024-03-25T10:19:36;19.59;64.61
68450;SHT30;67758;39.572;2.652;2024-03-25T10:24:37;19.53;64.33
68450;SHT30;67758;39.572;2.652;2024-03-25T10:27:02;19.72;63.55
68450;SHT30;67758;39.572;2.652;2024-03-25T10:29:29;20.10;63.42
68450;SHT30;67758;39.572;2.652;2024-03-25T10:31:59;19.57;63.83
68450;SHT30;67758;39.572;2.652;2024-03-25T10:34:25;20.00;63.75
68450;SHT30;67758;39.572;2.652;2024-03-25T10:36:52;20.23;63.41
68450;SHT30;67758;39.572;2.652;2024-03-25T10:39:25;20.28;63.31
68450;SHT30;67758;39.572;2.652;2024-03-25T10:41:57;20.33;62.78
68450;SHT30;67758;39.572;2.652;2024-03-25T10:44:24;19.71;64.60
68450;SHT30;67758;39.572;2.652;2024-03-25T10:47:01;20.25;63.52
68450;SHT30;67758;39.572;2.652;2024-03-25T10:49:35;20.30;63.28
68450;SHT30;67758;39.572;2.652;2024-03-25T10:52:05;20.18;63.89
68450;SHT30;67758;39.572;2.652;2024-03-25T10:54:32;20.05;64.17
68450;SHT30;67758;39.572;2.652;2024-03-25T10:56:58;20.09;64.51
68450;SHT30;67758;39.572;2.652;2024-03-25T10:59:26;19.69;64.87
68450;SHT30;67758;39.572;2.652;2024-03-25T11:01:53;19.41;66.27
68450;SHT30;67758;39.572;2.652;2024-03-25T11:04:20;19.59;65.98
68450;SHT30;67758;39.572;2.652;2024-03-25T11:06:46;19.30;66.77
68450;SHT30;67758;39.572;2.652;2024-03-25T11:09:25;19.03;67.41
68450;SHT30;67758;39.572;2.652;2024-03-25T11:11:52;18.67;68.63
68450;SHT30;67758;39.572;2.652;2024-03-25T11:14:18;18.66;68.77
68450;SHT30;67758;39.572;2.652;2024-03-25T11:16:54;18.59;68.95
68450;SHT30;67758;39.572;2.652;2024-03-25T11:19:20;18.24;69.60
68450;SHT30;67758;39.572;2.652;2024-03-25T11:21:46;18.38;69.60
68450;SHT30;67758;39.572;2.652;2024-03-25T11:24:12;18.70;68.92
68450;SHT30;67758;39.572;2.652;2024-03-25T11:26:42;18.62;68.96
68450;SHT30;67758;39.572;2.652;2024-03-25T11:29:08;18.53;69.14
68450;SHT30;67758;39.572;2.652;2024-03-25T11:31:34;18.60;68.99
68450;SHT30;67758;39.572;2.652;2024-03-25T11:34:06;18.56;69.35
68450;SHT30;67758;39.572;2.652;2024-03-25T11:36:33;18.80;68.94
68450;SHT30;67758;39.572;2.652;2024-03-25T11:39:06;18.93;68.78
68450;SHT30;67758;39.572;2.652;2024-03-25T11:41:43;19.14;68.45
68450;SHT30;67758;39.572;2.652;2024-03-25T11:44:10;19.02;68.54
68450;SHT30;67758;39.572;2.652;2024-03-25T11:46:38;18.92;68.92
68450;SHT30;67758;39.572;2.652;2024-03-25T11:49:15;18.82;69.21
68450;SHT30;67758;39.572;2.652;2024-03-25T11:51:43;18.41;70.29
68450;SHT30;67758;39.572;2.652;2024-03-25T11:54:13;18.26;70.81
68450;SHT30;67758;39.572;2.652;2024-03-25T11:56:39;18.44;70.75
68450;SHT30;67758;39.572;2.652;2024-03-25T11:59:05;18.45;70.40
68450;SHT30;67758;39.572;2.652;2024-03-25T12:01:31;18.67;70.10
68450;SHT30;67758;39.572;2.652;2024-03-25T12:04:11;18.95;69.49
68450;SHT30;67758;39.572;2.652;2024-03-25T12:06:37;19.31;68.82
68450;SHT30;67758;39.572;2.652;2024-03-25T12:09:02;19.11;68.80
68450;SHT30;67758;39.572;2.652;2024-03-25T12:11:47;19.03;69.32
68450;SHT30;67758;39.572;2.652;2024-03-25T12:14:13;19.16;69.23
68450;SHT30;67758;39.572;2.652;2024-03-25T12:16:40;18.66;70.15
68450;SHT30;67758;39.572;2.652;2024-03-25T12:19:06;18.63;70.67
68450;SHT30;67758;39.572;2.652;2024-03-25T12:21:31;18.82;70.16
68450;SHT30;67758;39.572;2.652;2024-03-25T12:23:57;18.67;70.64
68450;SHT30;67758;39.572;2.652;2024-03-25T12:26:24;18.79;70.73
68450;SHT30;67758;39.572;2.652;2024-03-25T12:28:49;18.62;71.02
68450;SHT30;67758;39.572;2.652;2024-03-25T12:31:15;18.67;70.95
68450;SHT30;67758;39.572;2.652;2024-03-25T12:33:42;18.53;71.09
68450;SHT30;67758;39.572;2.652;2024-03-25T12:36:09;18.57;70.97
68450;SHT30;67758;39.572;2.652;2024-03-25T12:38:36;18.36;71.63
68450;SHT30;67758;39.572;2.652;2024-03-25T12:41:12;18.93;70.80
68450;SHT30;67758;39.572;2.652;2024-03-25T12:43:44;18.90;70.55
68450;SHT30;67758;39.572;2.652;2024-03-25T12:46:11;18.80;70.80
68450;SHT30;67758;39.572;2.652;2024-03-25T12:48:37;18.72;70.98
68450;SHT30;67758;39.572;2.652;2024-03-25T12:51:03;18.73;71.16
68450;SHT30;67758;39.572;2.652;2024-03-25T12:53:30;18.90;70.87
68450;SHT30;67758;39.572;2.652;2024-03-25T12:55:56;19.07;70.41
68450;SHT30;67758;39.572;2.652;2024-03-25T12:58:22;19.16;70.46
68450;SHT30;67758;39.572;2.652;2024-03-25T13:00:47;19.04;70.57
68450;SHT30;67758;39.572;2.652;2024-03-25T13:03:14;19.23;70.43
68450;SHT30;67758;39.572;2.652;2024-03-25T13:05:40;19.11;70.35
68450;SHT30;67758;39.572;2.652;2024-03-25T13:08:06;19.06;70.54
68450;SHT30;67758;39.572;2.652;2024-03-25T13:10:32;18.97;70.81
68450;SHT30;67758;39.572;2.652;2024-03-25T13:12:59;18.92;70.93
68450;SHT30;67758;39.572;2.652;2024-03-25T13:15:26;18.69;71.54
68450;SHT30;67758;39.572;2.652;2024-03-25T13:17:51;18.83;71.29
68450;SHT30;67758;39.572;2.652;2024-03-25T13:20:17;18.70;71.58
68450;SHT30;67758;39.572;2.652;2024-03-25T13:22:44;18.82;71.52
68450;SHT30;67758;39.572;2.652;2024-03-25T13:25:11;18.80;71.80
68450;SHT30;67758;39.572;2.652;2024-03-25T13:27:37;18.55;72.32
68450;SHT30;67758;39.572;2.652;2024-03-25T13:30:04;18.59;72.38
68450;SHT30;67758;39.572;2.652;2024-03-25T13:32:30;18.72;72.18
68450;SHT30;67758;39.572;2.652;2024-03-25T13:34:56;18.16;73.06
68450;SHT30;67758;39.572;2.652;2024-03-25T13:37:21;18.28;73.24
68450;SHT30;67758;39.572;2.652;2024-03-25T13:39:47;18.42;72.86
68450;SHT30;67758;39.572;2.652;2024-03-25T13:42:13;18.55;72.49
68450;SHT30;67758;39.572;2.652;2024-03-25T13:44:39;18.62;72.31
68450;SHT30;67758;39.572;2.652;2024-03-25T13:47:05;18.69;72.14
68450;SHT30;67758;39.572;2.652;2024-03-25T13:49:33;18.83;71.91
68450;SHT30;67758;39.572;2.652;2024-03-25T13:51:59;18.86;71.71
68450;SHT30;67758;39.572;2.652;2024-03-25T13:54:26;18.80;71.96
68450;SHT30;67758;39.572;2.652;2024-03-25T13:56:52;18.66;72.26
68450;SHT30;67758;39.572;2.652;2024-03-25T13:59:18;18.34;72.91
68450;SHT30;67758;39.572;2.652;2024-03-25T14:01:47;18.11;73.59
68450;SHT30;67758;39.572;2.652;2024-03-25T14:04:13;18.29;73.46
68450;SHT30;67758;39.572;2.652;2024-03-25T14:06:39;18.51;73.06
68450;SHT30;67758;39.572;2.652;2024-03-25T14:09:05;18.55;72.76
68450;SHT30;67758;39.572;2.652;2024-03-25T14:11:34;18.05;73.83
68450;SHT30;67758;39.572;2.652;2024-03-25T14:14:00;17.88;74.56
68450;SHT30;67758;39.572;2.652;2024-03-25T14:16:26;17.67;75.03
68450;SHT30;67758;39.572;2.652;2024-03-25T14:18:51;17.95;74.72
68450;SHT30;67758;39.572;2.652;2024-03-25T14:21:17;18.19;74.28
68450;SHT30;67758;39.572;2.652;2024-03-25T14:23:43;18.31;73.72
68450;SHT30;67758;39.572;2.652;2024-03-25T14:26:14;17.98;74.37
68450;SHT30;67758;39.572;2.652;2024-03-25T14:28:43;18.12;74.15
68450;SHT30;67758;39.572;2.652;2024-03-25T14:31:08;18.15;73.96
68450;SHT30;67758;39.572;2.652;2024-03-25T14:33:34;18.21;73.77
68450;SHT30;67758;39.572;2.652;2024-03-25T14:36:00;18.36;73.48
68450;SHT30;67758;39.572;2.652;2024-03-25T14:38:25;18.42;73.33
68450;SHT30;67758;39.572;2.652;2024-03-25T14:40:51;18.36;73.34
68450;SHT30;67758;39.572;2.652;2024-03-25T14:43:18;18.42;73.41
68450;SHT30;67758;39.572;2.652;2024-03-25T14:45:48;18.44;73.33
68450;SHT30;67758;39.572;2.652;2024-03-25T14:48:16;18.09;74.33
68450;SHT30;67758;39.572;2.652;2024-03-25T14:50:42;18.12;74.33
68450;SHT30;67758;39.572;2.652;2024-03-25T14:53:07;18.16;74.31
68450;SHT30;67758;39.572;2.652;2024-03-25T14:55:33;18.14;74.46
68450;SHT30;67758;39.572;2.652;2024-03-25T14:57:58;18.25;74.20
68450;SHT30;67758;39.572;2.652;2024-03-25T15:00:24;18.34;74.06
68450;SHT30;67758;39.572;2.652;2024-03-25T15:02:53;18.29;73.98
68450;SHT30;67758;39.572;2.652;2024-03-25T15:05:19;18.19;74.27
68450;SHT30;67758;39.572;2.652;2024-03-25T15:07:45;18.21;74.52
68450;SHT30;67758;39.572;2.652;2024-03-25T15:10:11;18.28;74.31
68450;SHT30;67758;39.572;2.652;2024-03-25T15:12:40;18.32;74.20
68450;SHT30;67758;39.572;2.652;2024-03-25T15:15:06;18.24;74.47
68450;SHT30;67758;39.572;2.652;2024-03-25T15:17:34;18.26;74.36
68450;SHT30;67758;39.572;2.652;2024-03-25T15:20:00;18.05;74.74
68450;SHT30;67758;39.572;2.652;2024-03-25T15:22:25;17.95;74.97
68450;SHT30;67758;39.572;2.652;2024-03-25T15:24:51;17.88;75.28
68450;SHT30;67758;39.572;2.652;2024-03-25T15:27:17;17.74;75.67
68450;SHT30;67758;39.572;2.652;2024-03-25T15:29:42;17.81;75.50
68450;SHT30;67758;39.572;2.652;2024-03-25T15:32:08;17.69;74.02
68450;SHT30;67758;39.572;2.652;2024-03-25T15:34:33;17.50;73.92
68450;SHT30;67758;39.572;2.652;2024-03-25T15:36:59;17.42;73.59
68450;SHT30;67758;39.572;2.652;2024-03-25T15:39:25;17.23;73.35
68450;SHT30;67758;39.572;2.652;2024-03-25T15:41:52;17.12;73.63
68450;SHT30;67758;39.572;2.652;2024-03-25T15:44:17;17.15;73.69
68450;SHT30;67758;39.572;2.652;2024-03-25T15:46:46;17.20;73.52
68450;SHT30;67758;39.572;2.652;2024-03-25T15:49:12;17.13;73.59
68450;SHT30;67758;39.572;2.652;2024-03-25T15:51:37;17.16;73.52
68450;SHT30;67758;39.572;2.652;2024-03-25T15:54:03;17.08;73.76
68450;SHT30;67758;39.572;2.652;2024-03-25T15:56:29;17.02;73.79
68450;SHT30;67758;39.572;2.652;2024-03-25T15:58:55;17.02;73.63
68450;SHT30;67758;39.572;2.652;2024-03-25T16:01:21;17.06;73.66
68450;SHT30;67758;39.572;2.652;2024-03-25T16:03:47;17.02;73.75
68450;SHT30;67758;39.572;2.652;2024-03-25T16:06:13;17.15;73.40
68450;SHT30;67758;39.572;2.652;2024-03-25T16:08:39;17.33;73.01
68450;SHT30;67758;39.572;2.652;2024-03-25T16:11:18;17.64;72.69
68450;SHT30;67758;39.572;2.652;2024-03-25T16:13:48;17.88;71.61
68450;SHT30;67758;39.572;2.652;2024-03-25T16:16:21;18.21;70.75
68450;SHT30;67758;39.572;2.652;2024-03-25T16:18:53;18.38;70.29
68450;SHT30;67758;39.572;2.652;2024-03-25T16:21:29;18.25;70.19
68450;SHT30;67758;39.572;2.652;2024-03-25T16:23:55;18.38;70.10
68450;SHT30;67758;39.572;2.652;2024-03-25T16:26:27;18.32;70.08
68450;SHT30;67758;39.572;2.652;2024-03-25T16:28:55;18.18;70.24
68450;SHT30;67758;39.572;2.652;2024-03-25T16:31:21;18.29;70.31
68450;SHT30;67758;39.572;2.652;2024-03-25T16:33:55;18.06;70.67